createdAt,value
2018-07-31T00:00:18.748Z,0
2018-07-31T00:01:18.711Z,0
2018-07-31T00:02:18.782Z,0
2018-07-31T00:03:18.716Z,0
2018-07-31T00:04:18.732Z,0
2018-07-31T00:05:18.714Z,0
2018-07-31T00:06:18.712Z,0
2018-07-31T00:07:18.745Z,0
2018-07-31T00:08:18.701Z,0
2018-07-31T00:09:18.777Z,0
2018-07-31T00:10:18.775Z,0
2018-07-31T00:11:18.781Z,0
2018-07-31T00:12:18.737Z,0
2018-07-31T00:13:18.780Z,0
2018-07-31T00:14:18.781Z,0
2018-07-31T00:15:18.783Z,0
2018-07-31T00:16:18.663Z,0
2018-07-31T00:17:18.707Z,0
2018-07-31T00:18:18.696Z,0
2018-07-31T00:19:18.716Z,0
2018-07-31T00:20:18.668Z,0
2018-07-31T00:21:18.709Z,0
2018-07-31T00:22:18.717Z,0
2018-07-31T00:23:18.718Z,0
2018-07-31T00:24:18.785Z,0
2018-07-31T00:25:18.792Z,0
2018-07-31T00:26:18.752Z,0
2018-07-31T00:27:18.790Z,0
2018-07-31T00:28:18.728Z,0
2018-07-31T00:29:18.730Z,0
2018-07-31T00:30:18.733Z,0
2018-07-31T00:31:18.738Z,0
2018-07-31T00:32:18.733Z,0
2018-07-31T00:33:18.805Z,0
2018-07-31T00:34:18.738Z,0
2018-07-31T00:35:18.819Z,0
2018-07-31T00:36:18.755Z,0
2018-07-31T00:37:18.804Z,0
2018-07-31T00:38:18.809Z,0
2018-07-31T00:39:18.708Z,0
2018-07-31T00:40:18.728Z,0
2018-07-31T00:41:18.802Z,0
2018-07-31T00:42:18.811Z,0
2018-07-31T00:43:18.844Z,0
2018-07-31T00:44:18.756Z,0
2018-07-31T00:45:18.770Z,0
2018-07-31T00:46:18.783Z,0
2018-07-31T00:47:18.764Z,0
2018-07-31T00:48:18.709Z,0
2018-07-31T00:49:18.729Z,0
2018-07-31T00:50:18.809Z,0
2018-07-31T00:51:18.807Z,0
2018-07-31T00:52:18.692Z,0
2018-07-31T00:53:18.806Z,0
2018-07-31T00:54:18.690Z,0
2018-07-31T00:55:18.808Z,0
2018-07-31T00:56:18.724Z,0
2018-07-31T00:57:18.720Z,0
2018-07-31T00:58:18.768Z,0
2018-07-31T00:59:18.822Z,0
2018-07-31T01:00:18.752Z,0
2018-07-31T01:01:18.850Z,0
2018-07-31T01:02:18.824Z,0
2018-07-31T01:03:18.796Z,0
2018-07-31T01:04:18.824Z,0
2018-07-31T01:05:18.753Z,0
2018-07-31T01:06:18.894Z,0
2018-07-31T01:07:18.757Z,0
2018-07-31T01:08:18.730Z,0
2018-07-31T01:09:18.853Z,0
2018-07-31T01:10:18.764Z,0
2018-07-31T01:11:18.824Z,0
2018-07-31T01:12:18.847Z,0
2018-07-31T01:13:18.849Z,0
2018-07-31T01:14:18.736Z,0
2018-07-31T01:15:18.861Z,0
2018-07-31T01:16:18.851Z,0
2018-07-31T01:17:18.856Z,0
2018-07-31T01:18:18.791Z,0
2018-07-31T01:19:18.829Z,0
2018-07-31T01:20:18.795Z,0
2018-07-31T01:21:18.849Z,0
2018-07-31T01:22:18.860Z,0
2018-07-31T01:23:18.756Z,0
2018-07-31T01:24:18.776Z,0
2018-07-31T01:25:18.811Z,0
2018-07-31T01:26:18.857Z,0
2018-07-31T01:27:18.768Z,0
2018-07-31T01:28:18.844Z,0
2018-07-31T01:29:18.852Z,0
2018-07-31T01:30:18.770Z,0
2018-07-31T01:31:18.778Z,0
2018-07-31T01:32:18.845Z,0
2018-07-31T01:33:18.846Z,0
2018-07-31T01:34:18.803Z,0
2018-07-31T01:35:18.881Z,0
2018-07-31T01:36:18.861Z,0
2018-07-31T01:37:18.905Z,0
2018-07-31T01:38:18.770Z,0
2018-07-31T01:39:18.763Z,0
2018-07-31T01:40:18.844Z,0
2018-07-31T01:41:18.840Z,0
2018-07-31T01:42:18.755Z,0
2018-07-31T01:43:18.756Z,0
2018-07-31T01:44:18.752Z,0
2018-07-31T01:45:18.775Z,0
2018-07-31T01:46:18.843Z,0
2018-07-31T01:47:18.848Z,0
2018-07-31T01:48:18.810Z,0
2018-07-31T01:49:18.831Z,0
2018-07-31T01:50:18.869Z,0
2018-07-31T01:51:18.856Z,0
2018-07-31T01:52:18.855Z,0
2018-07-31T01:53:18.757Z,0
2018-07-31T01:54:18.871Z,0
2018-07-31T01:55:18.879Z,0
2018-07-31T01:56:18.798Z,0
2018-07-31T01:57:18.856Z,0
2018-07-31T01:58:18.731Z,0
2018-07-31T01:59:18.730Z,0
2018-07-31T02:00:18.801Z,0
2018-07-31T02:01:18.730Z,0
2018-07-31T02:02:18.742Z,0
2018-07-31T02:03:18.854Z,0
2018-07-31T02:04:18.731Z,0
2018-07-31T02:05:18.767Z,0
2018-07-31T02:06:18.741Z,0
2018-07-31T02:07:18.795Z,0
2018-07-31T02:08:18.835Z,0
2018-07-31T02:09:18.790Z,0
2018-07-31T02:10:18.891Z,0
2018-07-31T02:11:18.841Z,0
2018-07-31T02:12:18.869Z,0
2018-07-31T02:13:18.787Z,0
2018-07-31T02:14:18.899Z,0
2018-07-31T02:15:18.839Z,0
2018-07-31T02:16:18.901Z,0
2018-07-31T02:17:18.857Z,0
2018-07-31T02:18:18.904Z,0
2018-07-31T02:19:18.819Z,0
2018-07-31T02:20:18.780Z,0
2018-07-31T02:21:18.798Z,0
2018-07-31T02:22:18.779Z,0
2018-07-31T02:23:18.917Z,0
2018-07-31T02:24:18.915Z,0
2018-07-31T02:25:18.896Z,0
2018-07-31T02:26:18.877Z,0
2018-07-31T02:27:18.796Z,0
2018-07-31T02:28:19.001Z,0
2018-07-31T02:29:18.906Z,0
2018-07-31T02:30:18.799Z,0
2018-07-31T02:31:18.852Z,0
2018-07-31T02:32:18.904Z,0
2018-07-31T02:33:18.804Z,0
2018-07-31T02:34:18.902Z,0
2018-07-31T02:35:18.855Z,0
2018-07-31T02:36:18.920Z,0
2018-07-31T02:37:18.844Z,0
2018-07-31T02:38:18.810Z,0
2018-07-31T02:39:18.866Z,0
2018-07-31T02:40:18.852Z,0
2018-07-31T02:41:18.887Z,0
2018-07-31T02:42:18.862Z,0
2018-07-31T02:43:18.853Z,0
2018-07-31T02:44:18.932Z,0
2018-07-31T02:45:18.893Z,0
2018-07-31T02:46:18.927Z,0
2018-07-31T02:47:18.829Z,0
2018-07-31T02:48:18.816Z,0
2018-07-31T02:49:18.841Z,0
2018-07-31T02:50:18.872Z,0
2018-07-31T02:51:18.867Z,0
2018-07-31T02:52:18.936Z,0
2018-07-31T02:53:18.877Z,0
2018-07-31T02:54:18.879Z,0
2018-07-31T02:55:18.927Z,0
2018-07-31T02:56:18.936Z,4
2018-07-31T02:57:18.939Z,4
2018-07-31T02:58:18.892Z,4
2018-07-31T02:59:18.901Z,4
2018-07-31T03:00:18.863Z,4
2018-07-31T03:01:18.888Z,4
2018-07-31T03:02:18.869Z,4
2018-07-31T03:03:18.991Z,8
2018-07-31T03:04:18.884Z,4
2018-07-31T03:05:18.923Z,8
2018-07-31T03:06:18.932Z,8
2018-07-31T03:07:18.870Z,12
2018-07-31T03:08:19.099Z,12
2018-07-31T03:09:18.840Z,12
2018-07-31T03:10:18.850Z,16
2018-07-31T03:11:18.843Z,16
2018-07-31T03:12:18.861Z,20
2018-07-31T03:13:18.842Z,24
2018-07-31T03:14:18.844Z,32
2018-07-31T03:15:18.914Z,32
2018-07-31T03:16:18.878Z,40
2018-07-31T03:17:18.920Z,44
2018-07-31T03:18:18.854Z,52
2018-07-31T03:19:18.934Z,60
2018-07-31T03:20:18.955Z,68
2018-07-31T03:21:18.857Z,76
2018-07-31T03:22:18.885Z,88
2018-07-31T03:23:18.951Z,100
2018-07-31T03:24:18.899Z,116
2018-07-31T03:25:18.922Z,128
2018-07-31T03:26:18.925Z,144
2018-07-31T03:27:18.843Z,164
2018-07-31T03:28:18.890Z,188
2018-07-31T03:29:18.828Z,208
2018-07-31T03:30:18.966Z,232
2018-07-31T03:31:18.925Z,268
2018-07-31T03:32:18.864Z,296
2018-07-31T03:33:18.947Z,324
2018-07-31T03:34:18.845Z,364
2018-07-31T03:35:19.000Z,404
2018-07-31T03:36:18.956Z,444
2018-07-31T03:37:18.926Z,492
2018-07-31T03:38:18.964Z,540
2018-07-31T03:39:18.827Z,592
2018-07-31T03:40:18.832Z,644
2018-07-31T03:41:18.905Z,700
2018-07-31T03:42:18.977Z,764
2018-07-31T03:43:18.889Z,828
2018-07-31T03:44:18.950Z,896
2018-07-31T03:45:18.921Z,964
2018-07-31T03:46:18.952Z,1040
2018-07-31T03:47:18.890Z,1112
2018-07-31T03:48:18.936Z,1188
2018-07-31T03:49:18.929Z,1272
2018-07-31T03:50:18.887Z,1364
2018-07-31T03:51:18.862Z,1448
2018-07-31T03:52:18.933Z,1540
2018-07-31T03:53:18.964Z,1640
2018-07-31T03:54:18.846Z,1740
2018-07-31T03:55:18.845Z,1840
2018-07-31T03:56:18.985Z,1948
2018-07-31T03:57:18.812Z,2056
2018-07-31T03:58:18.897Z,2168
2018-07-31T03:59:18.862Z,2276
2018-07-31T04:00:18.832Z,2392
2018-07-31T04:01:18.813Z,2532
2018-07-31T04:02:18.931Z,2652
2018-07-31T04:03:18.865Z,2768
2018-07-31T04:04:18.938Z,2892
2018-07-31T04:05:18.966Z,3020
2018-07-31T04:06:18.866Z,3140
2018-07-31T04:07:18.854Z,3264
2018-07-31T04:08:18.899Z,3384
2018-07-31T04:09:18.902Z,3516
2018-07-31T04:10:18.945Z,3628
2018-07-31T04:11:18.903Z,3760
2018-07-31T04:12:18.919Z,3880
2018-07-31T04:13:18.946Z,4004
2018-07-31T04:14:18.922Z,4128
2018-07-31T04:15:18.950Z,4252
2018-07-31T04:16:18.987Z,4392
2018-07-31T04:17:18.987Z,4508
2018-07-31T04:18:18.978Z,4628
2018-07-31T04:19:18.860Z,4752
2018-07-31T04:20:18.949Z,4872
2018-07-31T04:21:18.862Z,4992
2018-07-31T04:22:18.894Z,5116
2018-07-31T04:23:18.953Z,5260
2018-07-31T04:24:18.942Z,5376
2018-07-31T04:25:18.894Z,5496
2018-07-31T04:26:18.871Z,5616
2018-07-31T04:27:18.849Z,5756
2018-07-31T04:28:18.956Z,5880
2018-07-31T04:29:18.963Z,6028
2018-07-31T04:30:18.905Z,6144
2018-07-31T04:31:18.979Z,6268
2018-07-31T04:32:18.960Z,6384
2018-07-31T04:33:18.914Z,6496
2018-07-31T04:34:18.978Z,6612
2018-07-31T04:35:18.916Z,6736
2018-07-31T04:36:18.960Z,6868
2018-07-31T04:37:18.902Z,6984
2018-07-31T04:38:18.972Z,7100
2018-07-31T04:39:18.948Z,7220
2018-07-31T04:40:18.845Z,7336
2018-07-31T04:41:19.060Z,7452
2018-07-31T04:42:18.950Z,7564
2018-07-31T04:43:18.917Z,7680
2018-07-31T04:44:18.841Z,7800
2018-07-31T04:45:18.837Z,7912
2018-07-31T04:46:18.924Z,8024
2018-07-31T04:47:18.921Z,8148
2018-07-31T04:48:18.845Z,8264
2018-07-31T04:49:19.001Z,8372
2018-07-31T04:50:18.950Z,8484
2018-07-31T04:51:18.953Z,8572
2018-07-31T04:52:18.945Z,8680
2018-07-31T04:53:18.936Z,8772
2018-07-31T04:54:18.937Z,8868
2018-07-31T04:55:18.881Z,8980
2018-07-31T04:56:18.902Z,9080
2018-07-31T04:57:18.971Z,9188
2018-07-31T04:58:18.984Z,9288
2018-07-31T04:59:18.947Z,9384
2018-07-31T05:00:19.024Z,9476
2018-07-31T05:01:19.011Z,9584
2018-07-31T05:02:19.025Z,9692
2018-07-31T05:03:18.983Z,9788
2018-07-31T05:04:18.989Z,9896
2018-07-31T05:05:18.985Z,9996
2018-07-31T05:06:18.893Z,10108
2018-07-31T05:07:18.953Z,10240
2018-07-31T05:08:18.898Z,10304
2018-07-31T05:09:18.989Z,10448
2018-07-31T05:10:18.989Z,10536
2018-07-31T05:11:18.992Z,10628
2018-07-31T05:12:18.926Z,10720
2018-07-31T05:13:19.030Z,10812
2018-07-31T05:14:18.997Z,10908
2018-07-31T05:15:18.929Z,10996
2018-07-31T05:16:18.929Z,11084
2018-07-31T05:17:18.997Z,11140
2018-07-31T05:18:18.980Z,11224
2018-07-31T05:19:18.937Z,11300
2018-07-31T05:20:19.034Z,11372
2018-07-31T05:21:18.962Z,11436
2018-07-31T05:22:18.965Z,11520
2018-07-31T05:23:18.975Z,11596
2018-07-31T05:24:19.003Z,11664
2018-07-31T05:25:18.994Z,11760
2018-07-31T05:26:19.001Z,11848
2018-07-31T05:27:18.976Z,11916
2018-07-31T05:28:19.038Z,12004
2018-07-31T05:29:19.043Z,12068
2018-07-31T05:30:18.972Z,12144
2018-07-31T05:31:18.976Z,12204
2018-07-31T05:32:18.946Z,12272
2018-07-31T05:33:19.033Z,12336
2018-07-31T05:34:19.040Z,12420
2018-07-31T05:35:18.969Z,12488
2018-07-31T05:36:18.970Z,12548
2018-07-31T05:37:19.048Z,12624
2018-07-31T05:38:18.968Z,12692
2018-07-31T05:39:18.950Z,12768
2018-07-31T05:40:18.987Z,12848
2018-07-31T05:41:19.025Z,12916
2018-07-31T05:42:18.984Z,13008
2018-07-31T05:43:18.971Z,13052
2018-07-31T05:44:19.039Z,13124
2018-07-31T05:45:19.038Z,13236
2018-07-31T05:46:19.100Z,13304
2018-07-31T05:47:18.989Z,13384
2018-07-31T05:48:19.056Z,13472
2018-07-31T05:49:19.042Z,13580
2018-07-31T05:50:19.045Z,13720
2018-07-31T05:51:18.976Z,19944
2018-07-31T05:52:19.005Z,33760
2018-07-31T05:53:19.108Z,37664
2018-07-31T05:54:19.063Z,38144
2018-07-31T05:55:18.925Z,38688
2018-07-31T05:56:19.063Z,39424
2018-07-31T05:57:18.994Z,43168
2018-07-31T05:58:19.065Z,41536
2018-07-31T05:59:18.947Z,45504
2018-07-31T06:00:19.026Z,45856
2018-07-31T06:01:19.029Z,38688
2018-07-31T06:02:18.988Z,37120
2018-07-31T06:03:18.999Z,37664
2018-07-31T06:04:19.002Z,39712
2018-07-31T06:05:18.968Z,41728
2018-07-31T06:06:18.926Z,45088
2018-07-31T06:07:18.933Z,48160
2018-07-31T06:08:19.045Z,51776
2018-07-31T06:09:18.958Z,51392
2018-07-31T06:10:18.956Z,51264
2018-07-31T06:11:18.976Z,50912
2018-07-31T06:12:19.022Z,50208
2018-07-31T06:13:18.927Z,50336
2018-07-31T06:14:18.903Z,51104
2018-07-31T06:15:19.049Z,52608
2018-07-31T06:16:18.973Z,54208
2018-07-31T06:17:18.971Z,56064
2018-07-31T06:18:18.995Z,57696
2018-07-31T06:19:19.073Z,58464
2018-07-31T06:20:19.064Z,58496
2018-07-31T06:21:19.035Z,58176
2018-07-31T06:22:19.005Z,57856
2018-07-31T06:23:19.043Z,57376
2018-07-31T06:24:19.011Z,57024
2018-07-31T06:25:18.875Z,56576
2018-07-31T06:26:19.077Z,56544
2018-07-31T06:27:19.065Z,56832
2018-07-31T06:28:19.024Z,57472
2018-07-31T06:29:19.066Z,58080
2018-07-31T06:30:19.027Z,58848
2018-07-31T06:31:19.104Z,59424
2018-07-31T06:32:19.061Z,59776
2018-07-31T06:33:19.023Z,59968
2018-07-31T06:34:19.011Z,61152
2018-07-31T06:35:19.082Z,62784
2018-07-31T06:36:19.069Z,64256
2018-07-31T06:37:19.080Z,65376
2018-07-31T06:38:19.038Z,65952
2018-07-31T06:39:19.049Z,65600
2018-07-31T06:40:19.097Z,65408
2018-07-31T06:41:18.993Z,65184
2018-07-31T06:42:18.992Z,65952
2018-07-31T06:43:19.053Z,67072
2018-07-31T06:44:19.055Z,68320
2018-07-31T06:45:19.058Z,70080
2018-07-31T06:46:19.035Z,70976
2018-07-31T06:47:19.053Z,70656
2018-07-31T06:48:18.991Z,70272
2018-07-31T06:49:19.099Z,70848
2018-07-31T06:50:19.060Z,71168
2018-07-31T06:51:18.999Z,70240
2018-07-31T06:52:19.061Z,69248
2018-07-31T06:53:18.998Z,70464
2018-07-31T06:54:19.064Z,72416
2018-07-31T06:55:18.997Z,73440
2018-07-31T06:56:19.067Z,75200
2018-07-31T06:57:18.998Z,75968
2018-07-31T06:58:19.062Z,75648
2018-07-31T06:59:18.973Z,73664
2018-07-31T07:00:19.109Z,65056
2018-07-31T07:01:19.031Z,72896
2018-07-31T07:02:19.033Z,73632
2018-07-31T07:03:19.039Z,75264
2018-07-31T07:04:18.968Z,77248
2018-07-31T07:05:19.038Z,78656
2018-07-31T07:06:19.037Z,78720
2018-07-31T07:07:19.074Z,78144
2018-07-31T07:08:19.028Z,77824
2018-07-31T07:09:19.117Z,76960
2018-07-31T07:10:19.107Z,76448
2018-07-31T07:11:18.980Z,76800
2018-07-31T07:12:18.986Z,78048
2018-07-31T07:13:19.103Z,80320
2018-07-31T07:14:19.048Z,82752
2018-07-31T07:15:19.105Z,84128
2018-07-31T07:16:19.048Z,83104
2018-07-31T07:17:19.048Z,82080
2018-07-31T07:18:19.049Z,80768
2018-07-31T07:19:19.080Z,80096
2018-07-31T07:20:18.979Z,80224
2018-07-31T07:21:19.017Z,81152
2018-07-31T07:22:19.085Z,82336
2018-07-31T07:23:18.987Z,84352
2018-07-31T07:24:19.007Z,88864
2018-07-31T07:25:19.116Z,92256
2018-07-31T07:26:19.103Z,94080
2018-07-31T07:27:19.124Z,94368
2018-07-31T07:28:19.085Z,93696
2018-07-31T07:29:19.036Z,93280
2018-07-31T07:30:19.041Z,92640
2018-07-31T07:31:19.023Z,90688
2018-07-31T07:32:18.983Z,90720
2018-07-31T07:33:18.980Z,89056
2018-07-31T07:34:19.022Z,88320
2018-07-31T07:35:19.029Z,87968
2018-07-31T07:36:18.953Z,88512
2018-07-31T07:37:19.079Z,90496
2018-07-31T07:38:19.053Z,92128
2018-07-31T07:39:19.044Z,93600
2018-07-31T07:40:19.023Z,95680
2018-07-31T07:41:19.083Z,98016
2018-07-31T07:42:19.084Z,97728
2018-07-31T07:43:19.087Z,95264
2018-07-31T07:44:19.045Z,95872
2018-07-31T07:45:19.057Z,97760
2018-07-31T07:46:19.046Z,98240
2018-07-31T07:47:18.967Z,99264
2018-07-31T07:48:19.122Z,99552
2018-07-31T07:49:19.100Z,98176
2018-07-31T07:50:19.034Z,96704
2018-07-31T07:51:19.034Z,83584
2018-07-31T07:52:19.030Z,101120
2018-07-31T07:53:19.082Z,103936
2018-07-31T07:54:19.177Z,105120
2018-07-31T07:55:19.035Z,105824
2018-07-31T07:56:19.042Z,106048
2018-07-31T07:57:19.105Z,106688
2018-07-31T07:58:19.040Z,105760
2018-07-31T07:59:19.039Z,106240
2018-07-31T08:00:19.106Z,105984
2018-07-31T08:01:19.041Z,106976
2018-07-31T08:02:19.109Z,106816
2018-07-31T08:03:19.044Z,107488
2018-07-31T08:04:19.046Z,108000
2018-07-31T08:05:19.110Z,109696
2018-07-31T08:06:19.110Z,110784
2018-07-31T08:07:19.045Z,110304
2018-07-31T08:08:19.046Z,108160
2018-07-31T08:09:19.137Z,107168
2018-07-31T08:10:19.150Z,106336
2018-07-31T08:11:19.160Z,105920
2018-07-31T08:12:19.140Z,107200
2018-07-31T08:13:19.090Z,110528
2018-07-31T08:14:19.086Z,112864
2018-07-31T08:15:19.156Z,114816
2018-07-31T08:16:19.116Z,117120
2018-07-31T08:17:19.140Z,115904
2018-07-31T08:18:19.088Z,114656
2018-07-31T08:19:19.092Z,112896
2018-07-31T08:20:19.237Z,112704
2018-07-31T08:21:19.087Z,112608
2018-07-31T08:22:19.132Z,112288
2018-07-31T08:23:19.098Z,112000
2018-07-31T08:24:19.043Z,112928
2018-07-31T08:25:19.153Z,116384
2018-07-31T08:26:19.150Z,119648
2018-07-31T08:27:19.126Z,122752
2018-07-31T08:28:19.102Z,124928
2018-07-31T08:29:19.162Z,125440
2018-07-31T08:30:19.171Z,124192
2018-07-31T08:31:19.030Z,124608
2018-07-31T08:32:19.102Z,125920
2018-07-31T08:33:19.033Z,127328
2018-07-31T08:34:19.104Z,127616
2018-07-31T08:35:19.162Z,130848
2018-07-31T08:36:19.101Z,132480
2018-07-31T08:37:19.104Z,134720
2018-07-31T08:38:19.095Z,134944
2018-07-31T08:39:19.124Z,132384
2018-07-31T08:40:19.142Z,126016
2018-07-31T08:41:19.164Z,131104
2018-07-31T08:42:19.141Z,135360
2018-07-31T08:43:19.137Z,135168
2018-07-31T08:44:19.135Z,138688
2018-07-31T08:45:19.077Z,140704
2018-07-31T08:46:19.075Z,138368
2018-07-31T08:47:19.143Z,144384
2018-07-31T08:48:19.074Z,131104
2018-07-31T08:49:19.141Z,144480
2018-07-31T08:50:19.149Z,144480
2018-07-31T08:51:19.299Z,129792
2018-07-31T08:52:19.074Z,132128
2018-07-31T08:53:19.154Z,113824
2018-07-31T08:54:19.077Z,112288
2018-07-31T08:55:19.081Z,81760
2018-07-31T08:56:19.081Z,152512
2018-07-31T08:57:19.148Z,129760
2018-07-31T08:58:19.088Z,129728
2018-07-31T08:59:19.082Z,125024
2018-07-31T09:00:19.018Z,149312
2018-07-31T09:01:19.142Z,128608
2018-07-31T09:02:19.139Z,115104
2018-07-31T09:03:19.058Z,67232
2018-07-31T09:04:19.147Z,63232
2018-07-31T09:05:19.136Z,64960
2018-07-31T09:06:19.157Z,65984
2018-07-31T09:07:19.017Z,69664
2018-07-31T09:08:19.126Z,97888
2018-07-31T09:09:19.177Z,94752
2018-07-31T09:10:19.160Z,86080
2018-07-31T09:11:19.137Z,84832
2018-07-31T09:12:19.136Z,98880
2018-07-31T09:13:19.067Z,86304
2018-07-31T09:14:19.183Z,107488
2018-07-31T09:15:19.112Z,108544
2018-07-31T09:16:19.133Z,94624
2018-07-31T09:17:19.125Z,76096
2018-07-31T09:18:19.131Z,90912
2018-07-31T09:19:19.165Z,120416
2018-07-31T09:20:19.197Z,85376
2018-07-31T09:21:19.187Z,85600
2018-07-31T09:22:19.260Z,105888
2018-07-31T09:23:19.205Z,120512
2018-07-31T09:24:19.251Z,116416
2018-07-31T09:25:19.065Z,77664
2018-07-31T09:26:19.143Z,65664
2018-07-31T09:27:19.149Z,69056
2018-07-31T09:28:19.132Z,84992
2018-07-31T09:29:19.185Z,140896
2018-07-31T09:30:19.194Z,161888
2018-07-31T09:31:19.036Z,154304
2018-07-31T09:32:19.112Z,162560
2018-07-31T09:33:19.159Z,159456
2018-07-31T09:34:19.080Z,149248
2018-07-31T09:35:19.160Z,154528
2018-07-31T09:36:19.170Z,148480
2018-07-31T09:37:19.084Z,144800
2018-07-31T09:38:19.083Z,142464
2018-07-31T09:39:19.171Z,141440
2018-07-31T09:40:19.166Z,141728
2018-07-31T09:41:19.115Z,143072
2018-07-31T09:42:19.174Z,147424
2018-07-31T09:43:19.069Z,151104
2018-07-31T09:44:19.085Z,154816
2018-07-31T09:45:19.048Z,156160
2018-07-31T09:46:19.085Z,158496
2018-07-31T09:47:19.247Z,155904
2018-07-31T09:48:19.179Z,155360
2018-07-31T09:49:19.102Z,154688
2018-07-31T09:50:19.183Z,154464
2018-07-31T09:51:19.120Z,155840
2018-07-31T09:52:19.187Z,160192
2018-07-31T09:53:19.224Z,162464
2018-07-31T09:54:19.123Z,165056
2018-07-31T09:55:19.187Z,167200
2018-07-31T09:56:19.125Z,168832
2018-07-31T09:57:19.189Z,116384
2018-07-31T09:58:19.127Z,128224
2018-07-31T09:59:19.189Z,126720
2018-07-31T10:00:19.215Z,73408
2018-07-31T10:01:19.193Z,101440
2018-07-31T10:02:19.113Z,109824
2018-07-31T10:03:19.154Z,87680
2018-07-31T10:04:19.202Z,78240
2018-07-31T10:05:19.199Z,63008
2018-07-31T10:06:19.178Z,53600
2018-07-31T10:07:19.167Z,52800
2018-07-31T10:08:19.242Z,52896
2018-07-31T10:09:19.211Z,52896
2018-07-31T10:10:19.099Z,54336
2018-07-31T10:11:19.062Z,56000
2018-07-31T10:12:19.054Z,57344
2018-07-31T10:13:19.101Z,58496
2018-07-31T10:14:19.107Z,59264
2018-07-31T10:15:19.145Z,60224
2018-07-31T10:16:19.146Z,60512
2018-07-31T10:17:19.102Z,61024
2018-07-31T10:18:19.168Z,62368
2018-07-31T10:19:19.055Z,64768
2018-07-31T10:20:19.172Z,72736
2018-07-31T10:21:19.208Z,84032
2018-07-31T10:23:19.197Z,165888
2018-07-31T10:24:19.111Z,104576
2018-07-31T10:25:19.161Z,170976
2018-07-31T10:26:19.165Z,189280
2018-07-31T10:27:19.082Z,189760
2018-07-31T10:28:19.081Z,184768
2018-07-31T10:29:19.138Z,103520
2018-07-31T10:30:19.100Z,150912
2018-07-31T10:31:19.161Z,122240
2018-07-31T10:32:19.206Z,162400
2018-07-31T10:33:19.208Z,175584
2018-07-31T10:34:19.211Z,178144
2018-07-31T10:35:19.124Z,176480
2018-07-31T10:36:19.201Z,177440
2018-07-31T10:37:19.169Z,157376
2018-07-31T10:38:19.121Z,178272
2018-07-31T10:40:19.179Z,151040
2018-07-31T10:41:19.176Z,162464
2018-07-31T10:42:19.125Z,164320
2018-07-31T10:43:19.215Z,160128
2018-07-31T10:44:19.123Z,172512
2018-07-31T10:45:19.216Z,172480
2018-07-31T10:46:19.091Z,176768
2018-07-31T10:47:19.144Z,173216
2018-07-31T10:48:19.125Z,46432
2018-07-31T10:49:19.180Z,44512
2018-07-31T10:50:19.260Z,50784
2018-07-31T10:51:19.185Z,43296
2018-07-31T10:52:19.263Z,137664
2018-07-31T10:53:19.227Z,168576
2018-07-31T10:54:19.208Z,89120
2018-07-31T10:55:19.253Z,111136
2018-07-31T10:56:19.234Z,153696
2018-07-31T10:57:19.156Z,82368
2018-07-31T10:58:19.270Z,174080
2018-07-31T10:59:19.173Z,140736
2018-07-31T11:00:19.233Z,65216
2018-07-31T11:01:19.233Z,70624
2018-07-31T11:02:19.233Z,90976
2018-07-31T11:03:19.205Z,180160
2018-07-31T11:04:19.313Z,178400
2018-07-31T11:05:19.234Z,80160
2018-07-31T11:06:19.359Z,143616
2018-07-31T11:07:19.203Z,174400
2018-07-31T11:08:19.257Z,143712
2018-07-31T11:09:19.272Z,54048
2018-07-31T11:10:19.250Z,129312
2018-07-31T11:11:19.178Z,127904
2018-07-31T11:12:19.242Z,161152
2018-07-31T11:13:19.191Z,148064
2018-07-31T11:14:19.129Z,109024
2018-07-31T11:15:19.276Z,39744
2018-07-31T11:16:19.174Z,37728
2018-07-31T11:17:19.242Z,36064
2018-07-31T11:18:19.263Z,36320
2018-07-31T11:19:19.248Z,37280
2018-07-31T11:20:19.111Z,38624
2018-07-31T11:21:19.259Z,41184
2018-07-31T11:22:19.222Z,43232
2018-07-31T11:23:19.192Z,45440
2018-07-31T11:24:19.176Z,47584
2018-07-31T11:25:19.183Z,51136
2018-07-31T11:26:19.208Z,55232
2018-07-31T11:27:19.117Z,56288
2018-07-31T11:28:19.182Z,54592
2018-07-31T11:29:19.206Z,54528
2018-07-31T11:30:19.203Z,129824
2018-07-31T11:31:19.129Z,63136
2018-07-31T11:32:19.134Z,57312
2018-07-31T11:33:19.111Z,56000
2018-07-31T11:34:19.156Z,54496
2018-07-31T11:35:19.205Z,55392
2018-07-31T11:36:19.117Z,57984
2018-07-31T11:37:19.113Z,62112
2018-07-31T11:38:19.203Z,88896
2018-07-31T11:39:19.208Z,97984
2018-07-31T11:40:19.251Z,108096
2018-07-31T11:41:19.211Z,178784
2018-07-31T11:42:19.250Z,184288
2018-07-31T11:43:19.168Z,179840
2018-07-31T11:44:19.172Z,177824
2018-07-31T11:45:19.214Z,176640
2018-07-31T11:46:19.163Z,172608
2018-07-31T11:47:19.193Z,173344
2018-07-31T11:48:19.201Z,173248
2018-07-31T11:49:19.262Z,151136
2018-07-31T11:50:19.269Z,176992
2018-07-31T11:51:19.200Z,146528
2018-07-31T11:52:19.270Z,176512
2018-07-31T11:53:19.201Z,147552
2018-07-31T11:54:19.207Z,90176
2018-07-31T11:55:19.206Z,89760
2018-07-31T11:56:19.292Z,88224
2018-07-31T11:57:19.205Z,128416
2018-07-31T11:58:19.272Z,113248
2018-07-31T11:59:19.321Z,123744
2018-07-31T12:00:19.319Z,74624
2018-07-31T12:01:19.280Z,75136
2018-07-31T12:02:19.316Z,72416
2018-07-31T12:03:19.313Z,78464
2018-07-31T12:04:19.310Z,158976
2018-07-31T12:05:19.258Z,144544
2018-07-31T12:06:19.325Z,83936
2018-07-31T12:07:19.280Z,166784
2018-07-31T12:08:19.319Z,178368
2018-07-31T12:09:19.303Z,108928
2018-07-31T12:10:19.281Z,146112
2018-07-31T12:11:19.287Z,106112
2018-07-31T12:12:19.286Z,104544
2018-07-31T12:13:19.285Z,63136
2018-07-31T12:14:19.284Z,61024
2018-07-31T12:15:19.220Z,60224
2018-07-31T12:16:19.288Z,60448
2018-07-31T12:17:19.222Z,58816
2018-07-31T12:18:19.221Z,54880
2018-07-31T12:19:19.315Z,51744
2018-07-31T12:20:19.286Z,51968
2018-07-31T12:21:19.226Z,52608
2018-07-31T12:22:19.174Z,53152
2018-07-31T12:23:19.295Z,52384
2018-07-31T12:24:19.225Z,51552
2018-07-31T12:25:19.294Z,51840
2018-07-31T12:26:19.230Z,57920
2018-07-31T12:27:19.292Z,127424
2018-07-31T12:28:19.235Z,166304
2018-07-31T12:29:19.320Z,170432
2018-07-31T12:30:19.201Z,82176
2018-07-31T12:31:19.296Z,88288
2018-07-31T12:32:19.235Z,170112
2018-07-31T12:33:19.290Z,184224
2018-07-31T12:34:19.202Z,176800
2018-07-31T12:35:19.241Z,148480
2018-07-31T12:36:19.237Z,167040
2018-07-31T12:37:19.187Z,81920
2018-07-31T12:38:19.239Z,169536
2018-07-31T12:39:19.234Z,167648
2018-07-31T12:40:19.302Z,162208
2018-07-31T12:41:19.235Z,69984
2018-07-31T12:42:19.306Z,58464
2018-07-31T12:43:19.240Z,50080
2018-07-31T12:44:19.240Z,44672
2018-07-31T12:45:19.305Z,44192
2018-07-31T12:46:19.245Z,45152
2018-07-31T12:47:19.202Z,47136
2018-07-31T12:48:19.266Z,49760
2018-07-31T12:49:19.308Z,51616
2018-07-31T12:50:19.331Z,56736
2018-07-31T12:51:19.213Z,63616
2018-07-31T12:52:19.291Z,64128
2018-07-31T12:53:19.326Z,65632
2018-07-31T12:54:19.340Z,61312
2018-07-31T12:55:19.286Z,55936
2018-07-31T12:56:19.214Z,44096
2018-07-31T12:57:19.344Z,41280
2018-07-31T12:58:19.218Z,41248
2018-07-31T12:59:19.344Z,43328
2018-07-31T13:00:19.218Z,45408
2018-07-31T13:01:19.281Z,47104
2018-07-31T13:02:19.270Z,49568
2018-07-31T13:03:19.268Z,52384
2018-07-31T13:04:19.241Z,53120
2018-07-31T13:05:19.346Z,52096
2018-07-31T13:06:19.320Z,52640
2018-07-31T13:07:19.318Z,61024
2018-07-31T13:08:19.266Z,113440
2018-07-31T13:09:19.266Z,160480
2018-07-31T13:10:19.263Z,112608
2018-07-31T13:11:19.351Z,140736
2018-07-31T13:12:19.231Z,105344
2018-07-31T13:13:19.290Z,53792
2018-07-31T13:14:19.355Z,48544
2018-07-31T13:15:19.357Z,41824
2018-07-31T13:16:19.358Z,38720
2018-07-31T13:17:19.327Z,38016
2018-07-31T13:18:19.265Z,38400